Time;durP1;ratioP1;P1;durP2;ratioP2;P2;SDS_P1;SDS_P2;PMS_P1;PMS_P2;Temp;Humidity;BMP_temperature;BMP_pressure;BME280_temperature;BME280_humidity;BME280_pressure;Samples;Min_cycle;Max_cycle;Signal;HPM_P1;HPM_P2
2021/12/27 00:01:38;;;;;;;;;40.75;39.75;6.50;77.60;;;;;;5015128;28;8789;-67
2021/12/27 00:04:04;;;;;;;;;35.25;33.75;7.00;76.20;;;;;;5013996;28;8766;-66
2021/12/27 00:06:30;;;;;;;;;42.50;38.00;7.10;74.20;;;;;;5015346;28;8786;-67
2021/12/27 00:08:56;;;;;;;;;34.25;30.75;7.00;74.80;;;;;;5013635;28;8778;-67
2021/12/27 00:11:22;;;;;;;;;39.00;37.00;7.00;74.50;;;;;;5014365;28;8844;-69
2021/12/27 00:13:48;;;;;;;;;40.00;38.25;6.80;76.50;;;;;;5015091;28;8742;-66
2021/12/27 00:16:14;;;;;;;;;38.75;38.00;6.80;76.00;;;;;;5015142;28;8847;-65
2021/12/27 00:18:40;;;;;;;;;52.25;43.50;6.60;76.70;;;;;;5013973;28;8822;-65
2021/12/27 00:21:06;;;;;;;;;42.50;38.50;6.20;78.50;;;;;;4996752;28;8790;-68
2021/12/27 00:23:32;;;;;;;;;45.00;40.00;6.40;78.00;;;;;;5013778;28;8798;-66
2021/12/27 00:25:58;;;;;;;;;41.25;39.25;6.40;78.60;;;;;;5014724;28;8947;-67
2021/12/27 00:28:24;;;;;;;;;35.00;34.75;6.50;78.70;;;;;;5015042;28;8778;-65
2021/12/27 00:30:49;;;;;;;;;41.50;36.00;6.50;79.10;;;;;;5015030;28;8832;-66
2021/12/27 00:33:15;;;;;;;;;36.25;32.50;6.40;79.20;;;;;;5014722;28;9395;-68
2021/12/27 00:35:41;;;;;;;;;37.25;37.25;6.20;80.30;;;;;;5014719;28;8769;-65
2021/12/27 00:38:08;;;;;;;;;38.00;33.50;6.40;78.60;;;;;;5014759;28;8750;-64
2021/12/27 00:40:35;;;;;;;;;37.00;34.25;6.80;76.10;;;;;;5013571;28;8770;-65
2021/12/27 00:43:00;;;;;;;;;33.00;32.00;6.60;75.80;;;;;;5014855;28;8774;-65
2021/12/27 00:45:26;;;;;;;;;63.75;49.25;6.60;77.70;;;;;;5014095;28;8786;-62
2021/12/27 00:47:54;;;;;;;;;61.75;51.25;6.90;75.60;;;;;;5014883;28;8790;-64
2021/12/27 00:50:20;;;;;;;;;57.00;45.25;7.00;74.90;;;;;;5014066;28;8932;-66
2021/12/27 00:52:46;;;;;;;;;62.00;50.50;6.20;78.60;;;;;;5017149;28;8786;-66
2021/12/27 00:55:13;;;;;;;;;48.00;42.00;6.40;78.30;;;;;;4998740;28;8772;-61
2021/12/27 00:57:39;;;;;;;;;47.25;39.25;6.10;79.70;;;;;;4999198;28;9516;-63
2021/12/27 01:00:09;;;;;;;;;47.50;39.50;6.20;80.30;;;;;;4998941;28;8800;-62
2021/12/27 01:02:35;;;;;;;;;51.25;43.75;6.20;79.30;;;;;;4998875;28;8799;-65
2021/12/27 01:05:01;;;;;;;;;42.75;41.50;6.40;78.10;;;;;;4999066;28;8764;-64
2021/12/27 01:07:27;;;;;;;;;43.75;38.75;6.50;76.70;;;;;;4999006;28;8768;-65
2021/12/27 01:10:05;;;;;;;;;55.75;44.50;6.70;75.40;;;;;;4998210;28;8981;-64
2021/12/27 01:12:48;;;;;;;;;49.00;40.00;6.80;75.50;;;;;;4998649;28;8873;-63
2021/12/27 01:17:45;;;;;;;;;45.25;38.75;7.20;73.30;;;;;;4998637;28;8796;-64
2021/12/27 01:20:14;;;;;;;;;40.50;36.25;7.30;72.30;;;;;;4998566;28;8788;-62
2021/12/27 01:22:41;;;;;;;;;40.75;38.50;7.30;72.40;;;;;;4998633;28;8768;-61
2021/12/27 01:25:08;;;;;;;;;40.75;37.75;7.50;72.10;;;;;;4998180;28;8787;-67
2021/12/27 01:27:34;;;;;;;;;39.25;36.00;7.40;71.80;;;;;;4998438;28;9394;-63
2021/12/27 01:30:00;;;;;;;;;39.00;36.75;7.60;71.10;;;;;;4998329;28;8756;-64
2021/12/27 01:32:31;;;;;;;;;36.75;33.75;7.50;71.30;;;;;;4998172;28;8804;-64
2021/12/27 01:34:57;;;;;;;;;38.50;33.25;7.40;71.90;;;;;;4998363;28;8782;-64
2021/12/27 01:37:23;;;;;;;;;39.50;38.00;7.40;72.20;;;;;;4998519;28;8764;-64
2021/12/27 01:39:49;;;;;;;;;36.75;34.75;7.50;71.50;;;;;;4998187;28;8855;-65
2021/12/27 01:42:15;;;;;;;;;44.25;38.25;7.50;71.50;;;;;;4998093;28;8788;-63
2021/12/27 01:44:41;;;;;;;;;37.25;34.25;7.60;69.70;;;;;;4998094;28;8772;-63
2021/12/27 01:47:09;;;;;;;;;45.00;42.00;7.50;71.10;;;;;;4998356;28;8854;-64
2021/12/27 01:49:35;;;;;;;;;44.75;38.75;7.20;71.90;;;;;;4998324;28;8792;-63
2021/12/27 01:52:02;;;;;;;;;42.25;38.00;7.20;72.40;;;;;;4998183;28;8808;-63
2021/12/27 01:54:27;;;;;;;;;31.00;27.50;7.20;72.40;;;;;;4997984;28;8768;-63
2021/12/27 01:56:53;;;;;;;;;36.75;36.50;7.30;72.10;;;;;;4997903;28;8772;-63
2021/12/27 01:59:19;;;;;;;;;35.25;34.00;7.30;71.90;;;;;;4997860;28;8931;-63
2021/12/27 02:01:45;;;;;;;;;25.75;22.00;7.30;71.90;;;;;;4997665;28;8911;-63
2021/12/27 02:04:11;;;;;;;;;32.75;32.25;7.30;71.80;;;;;;4998021;28;8799;-64
2021/12/27 02:06:37;;;;;;;;;36.00;35.50;7.10;73.30;;;;;;4997989;28;8780;-63
2021/12/27 02:09:04;;;;;;;;;46.00;37.00;7.10;73.50;;;;;;4997995;28;8764;-66
2021/12/27 02:11:34;;;;;;;;;36.75;30.50;7.10;73.10;;;;;;4997836;28;9025;-63
2021/12/27 02:14:04;;;;;;;;;41.25;33.75;7.40;72.40;;;;;;4998091;28;8846;-63
2021/12/27 02:16:30;;;;;;;;;47.00;41.00;7.40;71.70;;;;;;4997751;28;8906;-64
2021/12/27 02:18:56;;;;;;;;;42.25;38.00;7.10;72.80;;;;;;4997354;28;8807;-65
2021/12/27 02:21:23;;;;;;;;;38.00;35.50;7.20;72.60;;;;;;4997551;28;8783;-64
2021/12/27 02:23:50;;;;;;;;;37.00;37.00;7.30;72.10;;;;;;4997769;28;8792;-64
2021/12/27 02:26:17;;;;;;;;;40.75;36.25;7.20;73.10;;;;;;4997691;28;9437;-64
2021/12/27 02:28:42;;;;;;;;;34.75;33.00;7.30;72.10;;;;;;4997607;28;8800;-64
2021/12/27 02:31:09;;;;;;;;;38.25;37.50;7.30;71.90;;;;;;4997199;28;8800;-64
2021/12/27 02:33:39;;;;;;;;;33.00;32.50;7.10;72.50;;;;;;4997497;28;8776;-63
2021/12/27 02:36:06;;;;;;;;;38.00;34.50;7.10;73.20;;;;;;4997302;28;8844;-63
2021/12/27 02:38:35;;;;;;;;;42.00;37.25;7.10;73.30;;;;;;4997171;28;8756;-64
2021/12/27 02:41:02;;;;;;;;;30.00;29.25;7.20;72.20;;;;;;4997105;28;8768;-64
2021/12/27 02:43:32;;;;;;;;;34.00;30.25;7.20;72.50;;;;;;4997093;28;8756;-63
2021/12/27 02:45:59;;;;;;;;;30.75;30.75;7.10;71.70;;;;;;4997145;28;8831;-65
2021/12/27 02:48:28;;;;;;;;;34.25;32.25;7.10;72.50;;;;;;4996989;28;8805;-63
2021/12/27 02:50:55;;;;;;;;;36.50;29.50;7.30;71.70;;;;;;4996875;28;8803;-63
2021/12/27 02:53:23;;;;;;;;;26.00;23.25;7.40;70.70;;;;;;4997127;28;8764;-66
2021/12/27 02:55:51;;;;;;;;;28.50;25.75;7.30;71.40;;;;;;4997191;28;9452;-65
2021/12/27 02:58:17;;;;;;;;;24.75;20.50;7.00;71.80;;;;;;4996096;28;9547;-65
2021/12/27 03:00:56;;;;;;;;;34.75;31.00;7.00;72.40;;;;;;4996756;28;8849;-64
2021/12/27 03:03:22;;;;;;;;;25.50;24.25;6.90;72.50;;;;;;4996990;28;8791;-65
2021/12/27 03:05:48;;;;;;;;;36.50;31.75;6.90;72.90;;;;;;4996617;28;8757;-64
2021/12/27 03:08:15;;;;;;;;;13.75;10.00;7.00;72.00;;;;;;4996604;28;8790;-64
2021/12/27 03:10:51;;;;;;;;;29.00;28.75;7.10;71.60;;;;;;4996541;28;8748;-64
2021/12/27 03:13:19;;;;;;;;;37.50;32.00;6.90;72.90;;;;;;4995981;28;8790;-65
2021/12/27 03:15:49;;;;;;;;;30.00;28.25;6.90;72.70;;;;;;4996428;28;8903;-63
2021/12/27 03:18:16;;;;;;;;;30.25;27.50;6.90;72.70;;;;;;4996321;28;8824;-63
2021/12/27 03:20:42;;;;;;;;;30.50;24.75;7.00;72.40;;;;;;4996650;28;9441;-63
2021/12/27 03:23:08;;;;;;;;;26.25;25.75;7.10;71.20;;;;;;4995369;28;8814;-64
2021/12/27 03:25:34;;;;;;;;;31.25;28.50;6.90;71.30;;;;;;4996241;28;8786;-64
2021/12/27 03:28:00;;;;;;;;;25.50;22.25;6.80;72.50;;;;;;4996298;28;8787;-65
2021/12/27 03:30:26;;;;;;;;;28.75;27.25;6.80;72.50;;;;;;4996345;28;8775;-65
2021/12/27 03:32:54;;;;;;;;;28.50;27.00;6.80;72.90;;;;;;4996178;28;8863;-65
2021/12/27 03:35:29;;;;;;;;;25.00;22.50;6.80;72.70;;;;;;4996082;28;8760;-65
2021/12/27 03:37:58;;;;;;;;;26.75;23.00;7.00;71.70;;;;;;4996129;28;9468;-63
2021/12/27 03:40:26;;;;;;;;;29.75;28.00;7.00;71.50;;;;;;4996010;28;8768;-63
2021/12/27 03:42:53;;;;;;;;;25.50;24.25;7.00;71.30;;;;;;4996206;28;8794;-63
2021/12/27 03:45:28;;;;;;;;;24.25;21.75;6.80;72.20;;;;;;4996229;28;9436;-63
2021/12/27 03:47:54;;;;;;;;;31.50;28.75;6.90;71.70;;;;;;4996238;28;8780;-63
2021/12/27 03:50:20;;;;;;;;;26.50;25.75;6.90;72.30;;;;;;4995844;28;8783;-64
2021/12/27 03:52:46;;;;;;;;;33.00;29.50;7.10;70.80;;;;;;4995933;28;8780;-63
2021/12/27 03:55:13;;;;;;;;;31.50;27.75;7.20;70.60;;;;;;4995700;28;8764;-63
2021/12/27 03:57:41;;;;;;;;;27.00;25.50;7.20;70.70;;;;;;4995727;28;8764;-63
2021/12/27 04:00:43;;;;;;;;;34.50;29.75;7.10;70.70;;;;;;4995752;28;8795;-62
2021/12/27 04:03:01;;;;;;;;;29.75;29.00;7.10;70.70;;;;;;5011812;28;8867;-63
2021/12/27 04:05:28;;;;;;;;;30.50;29.25;7.20;71.00;;;;;;5015170;28;8778;-63
2021/12/27 04:08:04;;;;;;;;;30.75;29.50;7.20;70.10;;;;;;5015313;28;8757;-63
2021/12/27 04:10:30;;;;;;;;;34.50;27.75;7.30;69.60;;;;;;5015062;28;8762;-63
2021/12/27 04:12:56;;;;;;;;;30.75;29.50;7.20;69.40;;;;;;5015279;28;8868;-64
2021/12/27 04:15:22;;;;;;;;;26.25;23.75;7.20;69.70;;;;;;5015236;28;8762;-64
2021/12/27 04:17:49;;;;;;;;;29.50;25.75;7.20;70.10;;;;;;5014878;28;8947;-63
2021/12/27 04:20:14;;;;;;;;;32.25;31.50;7.20;69.90;;;;;;5015240;28;8754;-65
2021/12/27 04:22:40;;;;;;;;;29.50;28.50;7.20;69.70;;;;;;5014993;28;9435;-62
2021/12/27 04:25:07;;;;;;;;;38.25;30.00;6.90;71.40;;;;;;5014047;28;9524;-64
2021/12/27 04:27:32;;;;;;;;;38.75;33.25;6.90;71.70;;;;;;5015095;28;8766;-62
2021/12/27 04:29:58;;;;;;;;;27.00;26.25;6.80;72.10;;;;;;5015288;28;8770;-64
2021/12/27 04:32:24;;;;;;;;;30.75;27.25;6.90;71.30;;;;;;5014729;28;8918;-64
2021/12/27 04:34:50;;;;;;;;;37.25;32.00;6.90;71.60;;;;;;5015022;28;8808;-63
2021/12/27 04:37:16;;;;;;;;;42.00;37.50;7.00;70.70;;;;;;5014668;28;9406;-63
2021/12/27 04:39:41;;;;;;;;;40.75;32.75;6.90;71.30;;;;;;5014969;28;8774;-63
2021/12/27 04:42:08;;;;;;;;;30.00;28.25;7.00;71.20;;;;;;5014730;28;8762;-65
2021/12/27 04:44:34;;;;;;;;;42.75;39.50;7.20;70.20;;;;;;5014665;28;8772;-65
2021/12/27 04:47:00;;;;;;;;;36.50;34.75;7.20;70.00;;;;;;5014896;28;8778;-65
2021/12/27 04:49:25;;;;;;;;;47.00;39.00;7.20;69.90;;;;;;5014934;28;8789;-65
2021/12/27 04:51:51;;;;;;;;;35.00;31.00;7.10;70.20;;;;;;5014757;28;8975;-65
2021/12/27 04:54:17;;;;;;;;;35.00;32.00;7.10;70.50;;;;;;5014778;28;9432;-66
2021/12/27 04:56:43;;;;;;;;;49.25;42.50;7.10;70.10;;;;;;5014550;28;8758;-64
2021/12/27 04:59:09;;;;;;;;;45.25;40.25;6.90;71.00;;;;;;5014527;28;8776;-64
2021/12/27 05:01:35;;;;;;;;;45.00;39.00;6.80;72.50;;;;;;5013215;28;8804;-64
2021/12/27 05:04:01;;;;;;;;;44.75;41.00;7.10;71.30;;;;;;5013881;28;8774;-65
2021/12/27 05:06:27;;;;;;;;;49.50;44.25;7.10;71.20;;;;;;5014500;28;8841;-64
2021/12/27 05:08:53;;;;;;;;;49.25;42.50;7.10;70.50;;;;;;5013911;28;8774;-64
2021/12/27 05:11:20;;;;;;;;;47.25;42.25;7.20;70.10;;;;;;5014240;28;9417;-65
2021/12/27 05:13:46;;;;;;;;;57.25;46.00;7.40;69.20;;;;;;5014770;28;8746;-65
2021/12/27 05:16:12;;;;;;;;;47.50;39.25;7.20;69.50;;;;;;5014516;28;8766;-65
2021/12/27 05:18:38;;;;;;;;;42.75;38.00;6.80;71.80;;;;;;5014301;28;8798;-69
2021/12/27 05:21:04;;;;;;;;;57.00;46.50;6.80;72.00;;;;;;5013500;28;9420;-69
2021/12/27 05:23:33;;;;;;;;;48.00;41.00;6.70;72.20;;;;;;5013484;28;9404;-69
2021/12/27 05:26:00;;;;;;;;;54.50;43.00;6.70;72.80;;;;;;5014126;28;9446;-68
2021/12/27 05:28:26;;;;;;;;;51.50;44.75;7.00;71.30;;;;;;5014439;28;9451;-69
2021/12/27 05:30:51;;;;;;;;;60.50;50.00;7.10;70.40;;;;;;5014256;28;8812;-68
2021/12/27 05:33:19;;;;;;;;;56.00;44.50;7.20;70.20;;;;;;5013382;28;8773;-69
2021/12/27 05:35:46;;;;;;;;;52.00;42.50;7.00;70.80;;;;;;5014472;28;8762;-68
2021/12/27 05:38:12;;;;;;;;;47.00;42.25;6.90;70.40;;;;;;5018064;28;8804;-67
2021/12/27 05:40:38;;;;;;;;;39.00;37.50;6.80;72.10;;;;;;5016463;28;8785;-67
2021/12/27 05:43:06;;;;;;;;;42.00;39.00;6.80;72.20;;;;;;5017936;28;8788;-68
2021/12/27 05:45:32;;;;;;;;;39.50;36.25;6.70;72.50;;;;;;5017170;28;8762;-67
2021/12/27 05:47:58;;;;;;;;;43.50;37.00;6.70;72.40;;;;;;5017659;28;8774;-68
2021/12/27 05:50:24;;;;;;;;;42.75;35.75;6.60;73.20;;;;;;5017693;28;8762;-66
2021/12/27 05:52:50;;;;;;;;;33.75;33.50;6.50;73.60;;;;;;5017800;28;8806;-70
2021/12/27 05:55:16;;;;;;;;;28.50;21.50;6.50;74.00;;;;;;5017488;28;9510;-71
2021/12/27 05:57:41;;;;;;;;;33.75;26.25;6.70;73.30;;;;;;5017201;28;8785;-66
2021/12/27 06:00:10;;;;;;;;;31.75;31.75;7.00;72.30;;;;;;5017525;28;8758;-73
2021/12/27 06:02:36;;;;;;;;;34.75;32.75;7.00;71.80;;;;;;5016633;28;8786;-71
2021/12/27 06:05:03;;;;;;;;;35.25;32.00;6.70;72.40;;;;;;5016086;28;8824;-71
2021/12/27 06:07:30;;;;;;;;;42.00;38.25;6.20;75.60;;;;;;5017478;28;8792;-70
2021/12/27 06:09:56;;;;;;;;;38.00;36.75;6.00;77.90;;;;;;5017252;28;8786;-73
2021/12/27 06:12:22;;;;;;;;;34.75;28.75;5.80;79.40;;;;;;5017090;28;8793;-74
2021/12/27 06:14:48;;;;;;;;;42.75;38.25;5.50;82.20;;;;;;5017369;28;8874;-71
2021/12/27 06:17:14;;;;;;;;;31.00;30.00;5.60;82.40;;;;;;5017082;28;8928;-71
2021/12/27 06:19:40;;;;;;;;;43.25;35.25;5.80;81.40;;;;;;5015379;28;8797;-69
2021/12/27 06:22:08;;;;;;;;;35.00;32.25;6.00;80.00;;;;;;5017113;28;8774;-70
2021/12/27 06:24:34;;;;;;;;;30.50;30.25;6.00;79.40;;;;;;5017120;28;9641;-70
2021/12/27 06:27:00;;;;;;;;;38.50;36.75;6.10;79.20;;;;;;5017225;28;8800;-70
2021/12/27 06:29:25;;;;;;;;;48.50;42.50;5.80;80.10;;;;;;5016908;28;8758;-70
2021/12/27 06:31:51;;;;;;;;;40.50;37.00;5.30;84.20;;;;;;5016782;28;8786;-70
2021/12/27 06:34:17;;;;;;;;;41.00;28.25;4.90;88.20;;;;;;5016804;28;8872;-70
2021/12/27 06:36:43;;;;;;;;;34.50;32.00;4.80;89.10;;;;;;5016601;28;8851;-71
2021/12/27 06:39:09;;;;;;;;;41.00;36.00;4.50;90.90;;;;;;5016673;28;8770;-70
2021/12/27 06:41:35;;;;;;;;;27.50;25.75;4.60;89.90;;;;;;5016831;28;8774;-70
2021/12/27 06:44:02;;;;;;;;;21.25;20.50;4.60;89.30;;;;;;5016565;28;8765;-70
2021/12/27 06:46:28;;;;;;;;;37.00;34.00;4.50;90.00;;;;;;5016659;28;8894;-71
2021/12/27 06:48:55;;;;;;;;;41.00;35.75;4.40;90.70;;;;;;5015632;28;8893;-70
2021/12/27 06:51:21;;;;;;;;;38.00;33.00;4.50;90.00;;;;;;5016692;28;8888;-70
2021/12/27 06:53:47;;;;;;;;;43.00;37.00;4.60;89.40;;;;;;5016468;28;8789;-71
2021/12/27 06:56:12;;;;;;;;;37.50;35.75;4.60;88.70;;;;;;5016399;28;8770;-71
2021/12/27 06:58:38;;;;;;;;;38.25;35.00;4.70;88.70;;;;;;5016283;28;8831;-70
2021/12/27 07:01:04;;;;;;;;;27.50;20.50;4.80;88.70;;;;;;5016300;28;8774;-70
2021/12/27 07:03:30;;;;;;;;;34.75;33.25;4.70;88.70;;;;;;5016160;28;8793;-71
2021/12/27 07:05:57;;;;;;;;;27.00;25.25;4.80;88.20;;;;;;5016444;28;8770;-71
2021/12/27 07:08:22;;;;;;;;;36.00;31.25;4.90;86.40;;;;;;5016431;28;8758;-69
2021/12/27 07:10:49;;;;;;;;;29.00;24.00;5.10;85.30;;;;;;5016324;28;9439;-71
2021/12/27 07:13:15;;;;;;;;;31.00;30.75;5.10;84.40;;;;;;5016085;28;8785;-70
2021/12/27 07:15:42;;;;;;;;;37.25;36.50;5.10;84.10;;;;;;5016080;28;8750;-67
2021/12/27 07:18:09;;;;;;;;;37.75;36.00;4.90;86.50;;;;;;5015746;28;8824;-66
2021/12/27 07:20:35;;;;;;;;;41.25;37.50;5.20;86.00;;;;;;5015982;28;8793;-65
2021/12/27 07:23:02;;;;;;;;;34.00;32.00;5.20;84.80;;;;;;5016125;28;8765;-66
2021/12/27 07:25:28;;;;;;;;;33.00;28.50;5.40;81.50;;;;;;5016149;28;9430;-67
2021/12/27 07:27:54;;;;;;;;;34.00;30.75;5.00;84.40;;;;;;5015817;28;8781;-66
2021/12/27 07:30:20;;;;;;;;;27.75;25.50;4.90;85.40;;;;;;5015710;28;8860;-66
2021/12/27 07:32:46;;;;;;;;;30.50;27.00;4.70;86.30;;;;;;5015616;28;8832;-66
2021/12/27 07:35:12;;;;;;;;;24.75;23.00;4.60;87.60;;;;;;5015964;28;8862;-66
2021/12/27 07:37:38;;;;;;;;;32.50;27.75;4.30;89.70;;;;;;5014776;28;8804;-66
2021/12/27 07:40:05;;;;;;;;;28.00;22.50;4.20;90.10;;;;;;5015668;28;8751;-66
2021/12/27 07:42:31;;;;;;;;;29.25;27.75;4.00;91.10;;;;;;5015494;28;8762;-66
2021/12/27 07:44:57;;;;;;;;;29.75;28.75;4.10;91.40;;;;;;5015559;28;8789;-66
2021/12/27 07:47:23;;;;;;;;;24.50;23.25;4.20;90.60;;;;;;5015712;28;8812;-66
2021/12/27 07:49:48;;;;;;;;;25.75;23.75;4.30;90.40;;;;;;5015394;28;8778;-66
2021/12/27 07:52:14;;;;;;;;;30.00;24.50;4.40;88.70;;;;;;5015664;28;8806;-66
2021/12/27 07:54:40;;;;;;;;;33.75;28.75;4.40;89.30;;;;;;5015187;28;8770;-66
2021/12/27 07:57:06;;;;;;;;;20.25;18.50;4.40;88.80;;;;;;5013488;28;8778;-66
2021/12/27 07:59:32;;;;;;;;;16.00;13.75;4.50;86.00;;;;;;5015043;28;8766;-66
2021/12/27 08:01:58;;;;;;;;;23.25;20.00;4.50;86.40;;;;;;5015383;28;8877;-65
2021/12/27 08:04:24;;;;;;;;;22.00;18.50;4.30;86.70;;;;;;4997689;28;8852;-66
2021/12/27 08:06:50;;;;;;;;;20.25;18.50;4.20;88.90;;;;;;5015008;28;9391;-66
2021/12/27 08:09:16;;;;;;;;;17.00;17.00;4.00;89.70;;;;;;5015283;28;9423;-66
2021/12/27 08:11:42;;;;;;;;;19.75;15.75;4.00;91.00;;;;;;5014693;28;9566;-66
2021/12/27 08:14:08;;;;;;;;;23.00;18.25;4.20;90.40;;;;;;5014971;28;8850;-67
2021/12/27 08:16:34;;;;;;;;;25.50;22.25;4.40;87.40;;;;;;5014947;28;8759;-66
2021/12/27 08:19:00;;;;;;;;;23.75;22.50;4.10;90.40;;;;;;5014810;28;8809;-66
2021/12/27 08:21:26;;;;;;;;;24.00;22.75;4.20;90.70;;;;;;5014867;28;8872;-66
2021/12/27 08:23:53;;;;;;;;;34.00;31.50;4.50;90.00;;;;;;5015037;28;9460;-66
2021/12/27 08:26:19;;;;;;;;;24.50;21.25;4.40;90.20;;;;;;5014187;28;8757;-66
2021/12/27 08:28:48;;;;;;;;;30.00;29.50;4.50;88.00;;;;;;5014631;28;8887;-65
2021/12/27 08:31:14;;;;;;;;;23.00;23.00;4.20;90.70;;;;;;5014490;28;8839;-66
2021/12/27 08:33:39;;;;;;;;;27.50;24.25;4.10;90.80;;;;;;5015013;28;8856;-66
2021/12/27 08:36:06;;;;;;;;;21.00;21.00;4.00;90.70;;;;;;5014700;28;9423;-67
2021/12/27 08:38:32;;;;;;;;;17.50;16.50;4.10;90.50;;;;;;5014598;28;8780;-64
2021/12/27 08:40:58;;;;;;;;;23.25;22.75;4.00;90.70;;;;;;5014690;28;8777;-67
2021/12/27 08:43:25;;;;;;;;;14.00;14.00;4.00;91.60;;;;;;5014643;28;8759;-66
2021/12/27 08:45:52;;;;;;;;;13.25;12.75;4.60;88.70;;;;;;5014835;28;8762;-66
2021/12/27 08:48:18;;;;;;;;;20.25;19.75;4.40;86.90;;;;;;5015033;28;9505;-66
2021/12/27 08:50:44;;;;;;;;;21.00;18.25;4.40;88.10;;;;;;5014469;28;8873;-66
2021/12/27 08:53:10;;;;;;;;;20.00;15.50;4.40;88.50;;;;;;5014528;28;8876;-67
2021/12/27 08:55:37;;;;;;;;;18.50;17.00;4.60;87.00;;;;;;5014393;28;8782;-67
2021/12/27 08:58:04;;;;;;;;;20.00;19.50;5.00;84.70;;;;;;5013459;28;8774;-66
2021/12/27 09:00:30;;;;;;;;;20.50;17.50;5.10;82.40;;;;;;5014404;28;8754;-66
2021/12/27 09:02:56;;;;;;;;;18.00;18.00;5.10;80.50;;;;;;5014632;28;8809;-66
2021/12/27 09:05:22;;;;;;;;;20.00;17.75;5.00;83.00;;;;;;5014487;28;8762;-66
2021/12/27 09:07:48;;;;;;;;;19.00;17.50;5.00;83.00;;;;;;5014382;28;8785;-65
2021/12/27 09:10:14;;;;;;;;;15.50;15.00;5.30;82.00;;;;;;5014429;28;8799;-65
2021/12/27 09:12:41;;;;;;;;;17.50;16.75;4.80;83.20;;;;;;5017456;28;8801;-66
2021/12/27 09:15:14;;;;;;;;;19.00;17.00;4.70;85.30;;;;;;5018395;28;8852;-65
2021/12/27 09:17:40;;;;;;;;;26.75;23.50;4.60;86.20;;;;;;5018345;28;8798;-66
2021/12/27 09:20:07;;;;;;;;;22.25;21.50;4.50;87.10;;;;;;5018350;28;8758;-65
2021/12/27 09:22:33;;;;;;;;;16.00;16.00;4.30;86.50;;;;;;5018105;28;8762;-66
2021/12/27 09:24:59;;;;;;;;;21.50;20.75;4.20;87.30;;;;;;5017945;28;8788;-65
2021/12/27 09:27:25;;;;;;;;;22.25;19.25;4.30;88.20;;;;;;5018103;28;8784;-66
2021/12/27 09:29:51;;;;;;;;;19.00;19.00;4.30;87.70;;;;;;5018011;28;8762;-65
2021/12/27 09:32:17;;;;;;;;;21.25;20.00;4.50;87.50;;;;;;5017949;28;8831;-66
2021/12/27 09:34:44;;;;;;;;;20.75;18.50;4.70;85.00;;;;;;5017987;28;8747;-65
2021/12/27 09:37:10;;;;;;;;;22.00;20.00;4.60;84.50;;;;;;5017976;28;8751;-66
2021/12/27 09:39:36;;;;;;;;;25.00;21.25;4.30;87.40;;;;;;5017869;28;8775;-66
2021/12/27 09:42:02;;;;;;;;;22.50;19.50;4.30;86.30;;;;;;5017900;28;8754;-66
2021/12/27 09:44:29;;;;;;;;;21.50;21.50;4.30;88.20;;;;;;5017741;28;8856;-66
2021/12/27 09:46:55;;;;;;;;;28.00;25.75;4.10;89.10;;;;;;5017909;28;9525;-65
2021/12/27 09:49:22;;;;;;;;;25.25;23.50;4.00;91.10;;;;;;5017687;28;8780;-66
2021/12/27 09:51:49;;;;;;;;;28.25;28.25;4.10;91.10;;;;;;5017604;28;9423;-66
2021/12/27 09:54:15;;;;;;;;;25.00;24.00;4.20;90.70;;;;;;5000210;28;8758;-66
2021/12/27 09:56:41;;;;;;;;;32.00;28.25;4.60;87.50;;;;;;5017423;28;8795;-66
2021/12/27 09:59:07;;;;;;;;;29.00;27.00;4.80;85.40;;;;;;5017597;28;8758;-66
2021/12/27 10:01:33;;;;;;;;;30.75;30.25;4.60;86.80;;;;;;5017493;28;8767;-66
2021/12/27 10:04:01;;;;;;;;;21.25;21.25;4.70;84.90;;;;;;5017673;28;9435;-66
2021/12/27 10:06:29;;;;;;;;;40.25;31.50;4.80;85.80;;;;;;5017275;28;8872;-65
2021/12/27 10:08:57;;;;;;;;;30.75;24.75;5.00;83.50;;;;;;5017421;28;9415;-66
2021/12/27 10:11:30;;;;;;;;;35.25;32.25;4.90;81.70;;;;;;5017369;28;8782;-66
2021/12/27 10:14:19;;;;;;;;;35.50;33.75;5.20;80.70;;;;;;5017111;28;9544;-66
2021/12/27 10:16:45;;;;;;;;;38.25;36.00;5.30;80.10;;;;;;5017106;28;8833;-65
2021/12/27 10:19:15;;;;;;;;;25.50;25.25;5.40;79.10;;;;;;4999532;28;8822;-66
2021/12/27 10:21:41;;;;;;;;;32.00;29.00;5.00;81.50;;;;;;5017028;28;8762;-66
2021/12/27 10:24:19;;;;;;;;;31.00;29.00;5.00;82.40;;;;;;5015657;28;8881;-65
2021/12/27 10:26:49;;;;;;;;;33.75;32.75;5.00;82.00;;;;;;5016978;28;8758;-65
2021/12/27 10:29:23;;;;;;;;;37.50;36.00;4.80;82.90;;;;;;5016937;28;8770;-65
2021/12/27 10:32:09;;;;;;;;;29.50;26.25;5.10;82.10;;;;;;5017116;28;8798;-66
2021/12/27 10:34:43;;;;;;;;;33.00;30.75;5.40;79.20;;;;;;5016831;28;8770;-65
2021/12/27 10:37:23;;;;;;;;;51.50;44.50;5.00;79.90;;;;;;5016791;28;8766;-65
2021/12/27 10:40:08;;;;;;;;;51.25;45.50;4.80;82.40;;;;;;5016797;28;8758;-65
2021/12/27 10:42:35;;;;;;;;;55.75;46.25;4.70;82.10;;;;;;5016976;28;8770;-65
2021/12/27 10:45:16;;;;;;;;;48.75;43.00;5.00;81.30;;;;;;5016564;28;8762;-64
2021/12/27 10:47:49;;;;;;;;;50.75;45.00;4.90;81.40;;;;;;5016798;28;8790;-65
2021/12/27 10:50:20;;;;;;;;;57.75;50.00;4.90;81.30;;;;;;5016449;28;8798;-66
2021/12/27 10:52:53;;;;;;;;;50.50;45.25;4.90;82.30;;;;;;5016479;28;8843;-65
2021/12/27 10:55:27;;;;;;;;;49.25;43.25;4.90;81.10;;;;;;5016406;28;8786;-65
2021/12/27 10:58:26;;;;;;;;;38.75;36.25;4.70;81.90;;;;;;5016577;28;8789;-65
2021/12/27 11:00:56;;;;;;;;;57.00;45.25;4.50;82.10;;;;;;5016546;28;8798;-65
2021/12/27 11:03:36;;;;;;;;;46.50;44.00;4.60;82.80;;;;;;5016166;28;8788;-66
2021/12/27 11:06:04;;;;;;;;;48.50;44.00;4.50;83.40;;;;;;5016314;28;8762;-65
2021/12/27 11:08:31;;;;;;;;;53.25;44.00;4.70;82.90;;;;;;5016251;28;8761;-65
2021/12/27 11:10:58;;;;;;;;;39.25;38.25;4.70;82.50;;;;;;5016288;28;8826;-65
2021/12/27 11:13:24;;;;;;;;;39.50;36.75;4.50;81.80;;;;;;5016151;28;8776;-65
2021/12/27 11:15:50;;;;;;;;;41.25;37.00;4.60;82.00;;;;;;5016106;28;8908;-66
2021/12/27 11:18:16;;;;;;;;;48.25;42.00;4.60;82.00;;;;;;5015695;28;8830;-66
2021/12/27 11:20:57;;;;;;;;;43.00;39.25;4.70;83.40;;;;;;5015897;28;8849;-66
2021/12/27 11:23:24;;;;;;;;;50.75;43.25;5.00;81.00;;;;;;5015862;28;8835;-67
2021/12/27 11:26:01;;;;;;;;;45.00;41.00;5.00;80.20;;;;;;5016052;28;8850;-66
2021/12/27 11:28:33;;;;;;;;;51.00;43.25;4.80;80.50;;;;;;5015701;28;8792;-66
2021/12/27 11:31:03;;;;;;;;;35.25;35.00;4.80;80.20;;;;;;5015744;28;8742;-66
2021/12/27 11:33:30;;;;;;;;;42.50;36.50;4.90;78.70;;;;;;5015656;28;8847;-66
2021/12/27 11:35:59;;;;;;;;;23.50;22.00;5.00;78.70;;;;;;5015313;28;8818;-67
2021/12/27 11:38:35;;;;;;;;;21.50;21.50;4.50;80.80;;;;;;5015675;28;8762;-66
2021/12/27 11:41:04;;;;;;;;;35.50;32.75;4.30;82.60;;;;;;5015681;28;9403;-66
2021/12/27 11:44:09;;;;;;;;;36.00;31.75;4.50;81.60;;;;;;5015693;28;8778;-66
2021/12/27 11:46:47;;;;;;;;;33.50;28.25;4.70;79.80;;;;;;4974330;28;8796;-66
2021/12/27 11:49:14;;;;;;;;;30.75;28.25;4.40;86.30;;;;;;4974367;28;8800;-65
2021/12/27 11:51:40;;;;;;;;;31.25;30.75;4.20;84.50;;;;;;4974142;28;8914;-65
2021/12/27 11:54:28;;;;;;;;;30.50;26.50;4.10;84.80;;;;;;4974143;28;9430;-67
2021/12/27 11:56:55;;;;;;;;;48.00;37.75;4.30;83.40;;;;;;4973880;28;8793;-65
2021/12/27 11:59:32;;;;;;;;;35.75;35.75;4.40;82.90;;;;;;4973987;28;8769;-66
2021/12/27 12:02:14;;;;;;;;;32.00;30.25;4.60;82.60;;;;;;4962535;28;8922;-66
2021/12/27 12:04:48;;;;;;;;;30.25;28.00;4.80;81.30;;;;;;4950679;28;8773;-64
2021/12/27 12:07:32;;;;;;;;;32.50;30.00;4.70;81.40;;;;;;4948618;28;8792;-65
2021/12/27 12:09:59;;;;;;;;;35.50;32.00;4.80;79.30;;;;;;4949611;28;8896;-65
2021/12/27 12:12:28;;;;;;;;;36.25;34.00;4.80;81.40;;;;;;4933587;28;8865;-66
2021/12/27 12:14:57;;;;;;;;;39.75;34.75;5.20;79.70;;;;;;4943993;28;8847;-66
2021/12/27 12:17:40;;;;;;;;;38.25;33.50;5.30;78.20;;;;;;4982204;28;8836;-66
2021/12/27 12:20:23;;;;;;;;;29.50;28.75;5.30;77.50;;;;;;5011253;28;8774;-66
2021/12/27 12:22:58;;;;;;;;;39.00;35.50;5.40;76.70;;;;;;5012034;28;8750;-66
2021/12/27 12:25:24;;;;;;;;;38.00;34.75;5.30;76.60;;;;;;5014443;28;8758;-65
2021/12/27 12:28:11;;;;;;;;;36.25;34.00;5.30;77.50;;;;;;5014873;28;8828;-65
2021/12/27 12:30:40;;;;;;;;;39.25;36.00;5.30;77.10;;;;;;5014731;28;8770;-66
2021/12/27 12:33:12;;;;;;;;;42.75;38.75;5.30;78.50;;;;;;5014160;28;8813;-64
2021/12/27 12:35:41;;;;;;;;;36.00;35.25;5.10;80.80;;;;;;5014893;28;8794;-65
2021/12/27 12:38:11;;;;;;;;;44.00;39.50;5.30;79.30;;;;;;5014670;28;8776;-65
2021/12/27 12:40:37;;;;;;;;;38.75;37.25;4.90;80.30;;;;;;5014674;28;8796;-65
2021/12/27 12:43:03;;;;;;;;;50.00;41.00;4.90;81.50;;;;;;5014228;28;9527;-66
2021/12/27 12:45:30;;;;;;;;;45.00;33.50;4.80;82.00;;;;;;5014297;28;9430;-66
2021/12/27 12:47:56;;;;;;;;;36.75;33.50;4.70;82.90;;;;;;5014153;28;9436;-66
2021/12/27 12:50:23;;;;;;;;;42.50;37.75;4.90;82.60;;;;;;5014689;28;8801;-66
2021/12/27 12:52:54;;;;;;;;;32.75;30.00;4.90;82.00;;;;;;5014577;28;8816;-67
2021/12/27 12:55:22;;;;;;;;;48.75;41.50;4.90;81.00;;;;;;5014524;28;8773;-65